sensor_id;sensor_type;location;lat;lon;timestamp;pressure;altitude;pressure_sealevel;temperature;humidity
7407;BME280;3745;56.964;24.128;2024-01-25T00:01:19;98824.44;;;4.70;100.00
7407;BME280;3745;56.964;24.128;2024-01-25T00:03:45;98840.28;;;4.69;100.00
7407;BME280;3745;56.964;24.128;2024-01-25T00:06:10;98835.25;;;4.68;100.00
7407;BME280;3745;56.964;24.128;2024-01-25T00:08:36;98837.78;;;4.66;100.00
7407;BME280;3745;56.964;24.128;2024-01-25T00:11:02;98826.03;;;4.59;100.00
7407;BME280;3745;56.964;24.128;2024-01-25T00:13:28;98844.44;;;4.61;100.00
7407;BME280;3745;56.964;24.128;2024-01-25T00:15:54;98847.75;;;4.60;100.00
7407;BME280;3745;56.964;24.128;2024-01-25T00:18:20;98839.41;;;4.58;100.00
7407;BME280;3745;56.964;24.128;2024-01-25T00:20:45;98848.63;;;4.67;100.00
7407;BME280;3745;56.964;24.128;2024-01-25T00:23:11;98814.28;;;4.46;100.00
7407;BME280;3745;56.964;24.128;2024-01-25T00:25:37;98853.63;;;4.65;100.00
7407;BME280;3745;56.964;24.128;2024-01-25T00:28:03;98850.28;;;4.65;100.00
7407;BME280;3745;56.964;24.128;2024-01-25T00:30:28;98832.72;;;4.57;100.00
7407;BME280;3745;56.964;24.128;2024-01-25T00:32:55;98846.06;;;4.59;100.00
7407;BME280;3745;56.964;24.128;2024-01-25T00:35:21;98864.47;;;4.64;100.00
7407;BME280;3745;56.964;24.128;2024-01-25T00:37:48;98805.84;;;4.29;100.00
7407;BME280;3745;56.964;24.128;2024-01-25T00:40:14;98835.97;;;4.44;100.00
7407;BME280;3745;56.964;24.128;2024-01-25T00:42:44;98867.78;;;4.60;100.00
7407;BME280;3745;56.964;24.128;2024-01-25T00:45:14;98845.19;;;4.48;100.00
7407;BME280;3745;56.964;24.128;2024-01-25T00:47:40;98866.13;;;4.62;100.00
7407;BME280;3745;56.964;24.128;2024-01-25T00:50:06;98866.97;;;4.61;100.00
7407;BME280;3745;56.964;24.128;2024-01-25T00:52:32;98873.63;;;4.59;100.00
7407;BME280;3745;56.964;24.128;2024-01-25T00:54:58;98871.13;;;4.59;100.00
7407;BME280;3745;56.964;24.128;2024-01-25T00:57:23;98871.13;;;4.59;100.00
7407;BME280;3745;56.964;24.128;2024-01-25T00:59:49;98867.75;;;4.51;100.00
7407;BME280;3745;56.964;24.128;2024-01-25T01:02:15;98855.19;;;4.45;100.00
7407;BME280;3745;56.964;24.128;2024-01-25T01:04:41;98881.13;;;4.59;100.00
7407;BME280;3745;56.964;24.128;2024-01-25T01:07:07;98873.66;;;4.61;100.00
7407;BME280;3745;56.964;24.128;2024-01-25T01:09:34;98871.94;;;4.52;100.00
7407;BME280;3745;56.964;24.128;2024-01-25T01:11:59;98861.00;;;4.44;100.00
7407;BME280;3745;56.964;24.128;2024-01-25T01:14:25;98855.97;;;4.41;100.00
7407;BME280;3745;56.964;24.128;2024-01-25T01:16:50;98890.28;;;4.56;100.00
7407;BME280;3745;56.964;24.128;2024-01-25T01:19:17;98851.78;;;4.40;100.00
7407;BME280;3745;56.964;24.128;2024-01-25T01:21:43;98881.09;;;4.53;100.00
7407;BME280;3745;56.964;24.128;2024-01-25T01:24:12;98846.72;;;4.29;100.00
7407;BME280;3745;56.964;24.128;2024-01-25T01:26:38;98881.06;;;4.47;100.00
7407;BME280;3745;56.964;24.128;2024-01-25T01:29:04;98859.22;;;4.28;100.00
7407;BME280;3745;56.964;24.128;2024-01-25T01:31:30;98886.13;;;4.56;100.00
7407;BME280;3745;56.964;24.128;2024-01-25T01:33:56;98889.50;;;4.58;100.00
7407;BME280;3745;56.964;24.128;2024-01-25T01:36:23;98884.44;;;4.52;100.00
7407;BME280;3745;56.964;24.128;2024-01-25T01:38:49;98871.00;;;4.41;100.00
7407;BME280;3745;56.964;24.128;2024-01-25T01:41:15;98872.66;;;4.39;100.00
7407;BME280;3745;56.964;24.128;2024-01-25T01:43:40;98864.31;;;4.40;100.00
7407;BME280;3745;56.964;24.128;2024-01-25T01:46:11;98889.47;;;4.55;100.00
7407;BME280;3745;56.964;24.128;2024-01-25T01:48:41;98893.63;;;4.53;100.00
7407;BME280;3745;56.964;24.128;2024-01-25T01:51:07;98881.97;;;4.55;100.00
7407;BME280;3745;56.964;24.128;2024-01-25T01:53:34;98895.25;;;4.50;100.00
7407;BME280;3745;56.964;24.128;2024-01-25T01:56:00;98892.81;;;4.54;100.00
7407;BME280;3745;56.964;24.128;2024-01-25T01:58:27;98895.28;;;4.53;100.00
7407;BME280;3745;56.964;24.128;2024-01-25T02:00:55;98857.59;;;4.33;100.00
7407;BME280;3745;56.964;24.128;2024-01-25T02:03:21;98888.56;;;4.47;100.00
7407;BME280;3745;56.964;24.128;2024-01-25T02:05:47;98892.72;;;4.47;100.00
7407;BME280;3745;56.964;24.128;2024-01-25T02:08:13;98888.56;;;4.43;100.00
7407;BME280;3745;56.964;24.128;2024-01-25T02:10:38;98904.38;;;4.43;100.00
7407;BME280;3745;56.964;24.128;2024-01-25T02:13:04;98870.09;;;4.27;100.00
7407;BME280;3745;56.964;24.128;2024-01-25T02:15:29;98875.94;;;4.29;100.00
7407;BME280;3745;56.964;24.128;2024-01-25T02:17:55;98899.34;;;4.40;100.00
7407;BME280;3745;56.964;24.128;2024-01-25T02:20:21;98909.50;;;4.52;100.00
7407;BME280;3745;56.964;24.128;2024-01-25T02:22:47;98913.63;;;4.46;100.00
7407;BME280;3745;56.964;24.128;2024-01-25T02:25:12;98917.75;;;4.42;100.00
7407;BME280;3745;56.964;24.128;2024-01-25T02:27:38;98929.44;;;4.43;100.00
7407;BME280;3745;56.964;24.128;2024-01-25T02:30:07;98914.41;;;4.43;100.00
7407;BME280;3745;56.964;24.128;2024-01-25T02:32:33;98909.34;;;4.34;100.00
7407;BME280;3745;56.964;24.128;2024-01-25T02:34:59;98933.59;;;4.41;100.00
7407;BME280;3745;56.964;24.128;2024-01-25T02:37:24;98918.50;;;4.27;100.00
7407;BME280;3745;56.964;24.128;2024-01-25T02:39:50;98933.63;;;4.43;100.00
7407;BME280;3745;56.964;24.128;2024-01-25T02:42:16;98929.38;;;4.37;100.00
7407;BME280;3745;56.964;24.128;2024-01-25T02:44:44;98931.00;;;4.29;100.00
7407;BME280;3745;56.964;24.128;2024-01-25T02:47:10;98954.41;;;4.37;100.00
7407;BME280;3745;56.964;24.128;2024-01-25T02:49:36;98952.69;;;4.27;100.00
7407;BME280;3745;56.964;24.128;2024-01-25T02:52:01;98961.09;;;4.35;100.00
7407;BME280;3745;56.964;24.128;2024-01-25T02:54:27;98956.81;;;4.25;100.00
7407;BME280;3745;56.964;24.128;2024-01-25T02:56:53;98962.69;;;4.24;100.00
7407;BME280;3745;56.964;24.128;2024-01-25T02:59:18;98969.31;;;4.22;100.00
7407;BME280;3745;56.964;24.128;2024-01-25T03:01:45;98965.94;;;4.17;100.00
7407;BME280;3745;56.964;24.128;2024-01-25T03:04:11;98980.94;;;4.14;100.00
7407;BME280;3745;56.964;24.128;2024-01-25T03:06:37;98984.19;;;4.07;100.00
7407;BME280;3745;56.964;24.128;2024-01-25T03:09:03;98994.06;;;3.95;100.00
7407;BME280;3745;56.964;24.128;2024-01-25T03:11:32;98967.13;;;3.69;100.00
7407;BME280;3745;56.964;24.128;2024-01-25T03:13:57;98995.59;;;3.80;100.00
7407;BME280;3745;56.964;24.128;2024-01-25T03:16:23;98989.63;;;3.68;100.00
7407;BME280;3745;56.964;24.128;2024-01-25T03:18:48;99000.50;;;3.71;100.00
7407;BME280;3745;56.964;24.128;2024-01-25T03:21:14;98988.63;;;3.55;100.00
7407;BME280;3745;56.964;24.128;2024-01-25T03:23:40;99007.00;;;3.57;100.00
7407;BME280;3745;56.964;24.128;2024-01-25T03:26:05;99010.34;;;3.56;100.00
7407;BME280;3745;56.964;24.128;2024-01-25T03:28:32;99017.78;;;3.55;100.00
7407;BME280;3745;56.964;24.128;2024-01-25T03:30:58;99001.84;;;3.45;100.00
7407;BME280;3745;56.964;24.128;2024-01-25T03:33:23;99016.94;;;3.54;100.00
7407;BME280;3745;56.964;24.128;2024-01-25T03:35:50;99022.00;;;3.57;100.00
7407;BME280;3745;56.964;24.128;2024-01-25T03:38:17;99002.59;;;3.38;100.00
7407;BME280;3745;56.964;24.128;2024-01-25T03:40:43;99031.91;;;3.51;100.00
7407;BME280;3745;56.964;24.128;2024-01-25T03:43:09;99033.53;;;3.46;100.00
7407;BME280;3745;56.964;24.128;2024-01-25T03:45:35;99018.34;;;3.31;100.00
7407;BME280;3745;56.964;24.128;2024-01-25T03:48:01;99029.94;;;3.26;100.00
7407;BME280;3745;56.964;24.128;2024-01-25T03:50:27;99047.53;;;3.34;100.00
7407;BME280;3745;56.964;24.128;2024-01-25T03:52:52;99048.31;;;3.31;100.00
7407;BME280;3745;56.964;24.128;2024-01-25T03:55:18;99056.63;;;3.30;100.00
7407;BME280;3745;56.964;24.128;2024-01-25T03:57:44;99056.69;;;3.33;100.00
7407;BME280;3745;56.964;24.128;2024-01-25T04:00:11;99061.59;;;3.27;100.00
7407;BME280;3745;56.964;24.128;2024-01-25T04:02:37;99020.47;;;3.04;100.00
7407;BME280;3745;56.964;24.128;2024-01-25T04:05:03;99049.78;;;3.17;100.00
7407;BME280;3745;56.964;24.128;2024-01-25T04:07:28;99021.22;;;3.00;100.00
7407;BME280;3745;56.964;24.128;2024-01-25T04:09:54;99065.63;;;3.17;100.00
7407;BME280;3745;56.964;24.128;2024-01-25T04:12:20;99068.16;;;3.20;100.00
7407;BME280;3745;56.964;24.128;2024-01-25T04:14:45;99073.19;;;3.22;100.00
7407;BME280;3745;56.964;24.128;2024-01-25T04:17:11;99074.81;;;3.20;100.00
7407;BME280;3745;56.964;24.128;2024-01-25T04:19:36;99061.28;;;3.06;100.00
7407;BME280;3745;56.964;24.128;2024-01-25T04:22:02;99078.06;;;3.13;100.00
7407;BME280;3745;56.964;24.128;2024-01-25T04:24:27;99086.34;;;3.12;100.00
7407;BME280;3745;56.964;24.128;2024-01-25T04:26:53;99088.00;;;3.10;100.00
7407;BME280;3745;56.964;24.128;2024-01-25T04:29:18;99066.19;;;3.00;100.00
7407;BME280;3745;56.964;24.128;2024-01-25T04:31:45;99090.53;;;3.13;100.00
7407;BME280;3745;56.964;24.128;2024-01-25T04:34:12;99089.63;;;3.08;100.00
7407;BME280;3745;56.964;24.128;2024-01-25T04:36:38;99089.66;;;3.11;100.00
7407;BME280;3745;56.964;24.128;2024-01-25T04:39:04;99076.19;;;3.00;100.00
7407;BME280;3745;56.964;24.128;2024-01-25T04:41:29;99095.41;;;3.05;100.00
7407;BME280;3745;56.964;24.128;2024-01-25T04:43:55;99071.03;;;2.91;100.00
7407;BME280;3745;56.964;24.128;2024-01-25T04:46:21;99079.44;;;2.96;100.00
7407;BME280;3745;56.964;24.128;2024-01-25T04:48:46;99097.81;;;2.98;100.00
7407;BME280;3745;56.964;24.128;2024-01-25T04:51:17;99097.00;;;3.00;100.00
7407;BME280;3745;56.964;24.128;2024-01-25T04:53:43;99111.16;;;2.98;100.00
7407;BME280;3745;56.964;24.128;2024-01-25T04:56:09;99084.28;;;2.87;100.00
7407;BME280;3745;56.964;24.128;2024-01-25T04:58:35;99100.31;;;2.98;100.00
7407;BME280;3745;56.964;24.128;2024-01-25T05:01:00;99115.31;;;2.99;100.00
7407;BME280;3745;56.964;24.128;2024-01-25T05:03:26;99119.44;;;2.99;100.00
7407;BME280;3745;56.964;24.128;2024-01-25T05:05:52;99099.22;;;2.84;100.00
7407;BME280;3745;56.964;24.128;2024-01-25T05:08:17;99126.13;;;3.00;100.00
7407;BME280;3745;56.964;24.128;2024-01-25T05:10:43;99128.59;;;2.95;100.00
7407;BME280;3745;56.964;24.128;2024-01-25T05:13:09;99106.50;;;2.70;100.00
7407;BME280;3745;56.964;24.128;2024-01-25T05:15:35;99115.28;;;2.48;100.00
7407;BME280;3745;56.964;24.128;2024-01-25T05:18:02;99163.59;;;2.53;100.00
7407;BME280;3745;56.964;24.128;2024-01-25T05:20:27;99159.91;;;2.33;100.00
7407;BME280;3745;56.964;24.128;2024-01-25T05:22:58;99163.88;;;2.25;100.00
7407;BME280;3745;56.964;24.128;2024-01-25T05:25:24;99157.66;;;2.05;100.00
7407;BME280;3745;56.964;24.128;2024-01-25T05:27:51;99169.88;;;1.93;100.00
7407;BME280;3745;56.964;24.128;2024-01-25T05:30:17;99156.34;;;1.82;100.00
7407;BME280;3745;56.964;24.128;2024-01-25T05:32:43;99177.09;;;1.81;100.00
7407;BME280;3745;56.964;24.128;2024-01-25T05:35:09;99175.34;;;1.77;100.00
7407;BME280;3745;56.964;24.128;2024-01-25T05:37:35;99179.47;;;1.75;100.00
7407;BME280;3745;56.964;24.128;2024-01-25T05:40:00;99149.81;;;1.49;100.00
7407;BME280;3745;56.964;24.128;2024-01-25T05:42:27;99170.66;;;1.53;100.00
7407;BME280;3745;56.964;24.128;2024-01-25T05:44:52;99149.25;;;1.25;100.00
7407;BME280;3745;56.964;24.128;2024-01-25T05:47:18;99152.63;;;1.27;100.00
7407;BME280;3745;56.964;24.128;2024-01-25T05:49:44;99184.41;;;1.37;100.00
7407;BME280;3745;56.964;24.128;2024-01-25T05:52:10;99199.44;;;1.40;100.00
7407;BME280;3745;56.964;24.128;2024-01-25T05:54:35;99177.31;;;1.18;100.00
7407;BME280;3745;56.964;24.128;2024-01-25T05:57:01;99168.59;;;1.01;100.00
7407;BME280;3745;56.964;24.128;2024-01-25T05:59:27;99204.75;;;1.20;100.00
7407;BME280;3745;56.964;24.128;2024-01-25T06:01:52;99213.94;;;1.22;100.00
7407;BME280;3745;56.964;24.128;2024-01-25T06:04:18;99218.19;;;1.26;100.00
7407;BME280;3745;56.964;24.128;2024-01-25T06:06:44;99204.47;;;1.07;100.00
7407;BME280;3745;56.964;24.128;2024-01-25T06:09:10;99227.13;;;1.18;100.00
7407;BME280;3745;56.964;24.128;2024-01-25T06:11:35;99234.53;;;1.15;100.00
7407;BME280;3745;56.964;24.128;2024-01-25T06:14:01;99240.28;;;1.14;100.00
7407;BME280;3745;56.964;24.128;2024-01-25T06:16:27;99244.47;;;1.14;100.00
7407;BME280;3745;56.964;24.128;2024-01-25T06:18:52;99238.56;;;1.10;100.00
7407;BME280;3745;56.964;24.128;2024-01-25T06:21:18;99248.66;;;1.16;100.00
7407;BME280;3745;56.964;24.128;2024-01-25T06:23:43;99257.88;;;1.20;100.00
7407;BME280;3745;56.964;24.128;2024-01-25T06:26:09;99259.59;;;1.21;100.00
7407;BME280;3745;56.964;24.128;2024-01-25T06:28:34;99246.81;;;1.09;100.00
7407;BME280;3745;56.964;24.128;2024-01-25T06:31:01;99273.66;;;1.19;100.00
7407;BME280;3745;56.964;24.128;2024-01-25T06:33:26;99271.88;;;1.15;100.00
7407;BME280;3745;56.964;24.128;2024-01-25T06:35:54;99271.97;;;1.18;100.00
7407;BME280;3745;56.964;24.128;2024-01-25T06:38:19;99277.72;;;1.16;100.00
7407;BME280;3745;56.964;24.128;2024-01-25T06:40:45;99285.13;;;1.14;100.00
7407;BME280;3745;56.964;24.128;2024-01-25T06:43:11;99291.88;;;1.17;100.00
7407;BME280;3745;56.964;24.128;2024-01-25T06:45:37;99301.13;;;1.22;100.00
7407;BME280;3745;56.964;24.128;2024-01-25T06:48:07;99290.03;;;1.11;100.00
7407;BME280;3745;56.964;24.128;2024-01-25T06:50:35;99291.81;;;1.15;100.00
7407;BME280;3745;56.964;24.128;2024-01-25T06:53:04;99252.00;;;0.85;100.00
7407;BME280;3745;56.964;24.128;2024-01-25T06:55:33;99302.63;;;1.16;100.00
7407;BME280;3745;56.964;24.128;2024-01-25T06:57:59;99325.13;;;1.20;100.00
7407;BME280;3745;56.964;24.128;2024-01-25T07:00:27;99330.03;;;1.17;100.00
7407;BME280;3745;56.964;24.128;2024-01-25T07:02:52;99339.84;;;1.11;100.00
7407;BME280;3745;56.964;24.128;2024-01-25T07:05:19;99343.16;;;1.10;100.00
7407;BME280;3745;56.964;24.128;2024-01-25T07:07:45;99305.94;;;0.85;100.00
7407;BME280;3745;56.964;24.128;2024-01-25T07:10:10;99353.97;;;1.11;100.00
7407;BME280;3745;56.964;24.128;2024-01-25T07:12:36;99353.19;;;1.13;100.00
7407;BME280;3745;56.964;24.128;2024-01-25T07:15:01;99366.50;;;1.14;100.00
7407;BME280;3745;56.964;24.128;2024-01-25T07:17:28;99354.53;;;1.02;100.00
7407;BME280;3745;56.964;24.128;2024-01-25T07:19:54;99375.38;;;1.05;100.00
7407;BME280;3745;56.964;24.128;2024-01-25T07:22:20;99381.31;;;1.09;100.00
7407;BME280;3745;56.964;24.128;2024-01-25T07:24:48;99386.19;;;1.06;100.00
7407;BME280;3745;56.964;24.128;2024-01-25T07:27:14;99219.00;;;0.03;100.00
7407;BME280;3745;56.964;24.128;2024-01-25T07:29:39;99396.16;;;1.06;100.00
7407;BME280;3745;56.964;24.128;2024-01-25T07:32:06;99399.44;;;1.05;100.00
7407;BME280;3745;56.964;24.128;2024-01-25T07:34:33;99404.50;;;1.08;100.00
7407;BME280;3745;56.964;24.128;2024-01-25T07:36:59;99372.34;;;0.86;100.00
7407;BME280;3745;56.964;24.128;2024-01-25T07:39:25;99416.09;;;1.06;100.00
7407;BME280;3745;56.964;24.128;2024-01-25T07:41:51;99419.38;;;1.05;100.00
7407;BME280;3745;56.964;24.128;2024-01-25T07:44:17;99426.06;;;1.06;100.00
7407;BME280;3745;56.964;24.128;2024-01-25T07:46:44;99407.47;;;0.95;100.00
7407;BME280;3745;56.964;24.128;2024-01-25T07:49:10;99404.72;;;0.86;100.00
7407;BME280;3745;56.964;24.128;2024-01-25T07:51:35;99387.56;;;0.67;100.00
7407;BME280;3745;56.964;24.128;2024-01-25T07:54:01;99437.63;;;1.04;100.00
7407;BME280;3745;56.964;24.128;2024-01-25T07:56:27;99458.50;;;1.07;100.00
7407;BME280;3745;56.964;24.128;2024-01-25T07:58:53;99461.94;;;1.13;100.00
7407;BME280;3745;56.964;24.128;2024-01-25T08:01:19;99449.44;;;1.11;100.00
7407;BME280;3745;56.964;24.128;2024-01-25T08:03:45;99330.91;;;0.31;100.00
7407;BME280;3745;56.964;24.128;2024-01-25T08:06:11;99445.63;;;0.94;100.00
7407;BME280;3745;56.964;24.128;2024-01-25T08:08:37;99374.56;;;0.48;100.00
7407;BME280;3745;56.964;24.128;2024-01-25T08:11:02;99492.69;;;1.13;100.00
7407;BME280;3745;56.964;24.128;2024-01-25T08:13:29;99502.81;;;1.19;100.00
7407;BME280;3745;56.964;24.128;2024-01-25T08:15:56;99505.41;;;1.22;100.00
7407;BME280;3745;56.964;24.128;2024-01-25T08:18:21;99507.81;;;1.19;100.00
7407;BME280;3745;56.964;24.128;2024-01-25T08:20:48;99524.41;;;1.20;100.00
7407;BME280;3745;56.964;24.128;2024-01-25T08:23:14;99466.78;;;0.80;100.00
7407;BME280;3745;56.964;24.128;2024-01-25T08:25:40;99547.66;;;1.19;100.00
7407;BME280;3745;56.964;24.128;2024-01-25T08:28:06;99375.00;;;0.10;100.00
7407;BME280;3745;56.964;24.128;2024-01-25T08:30:32;99537.50;;;1.13;100.00
7407;BME280;3745;56.964;24.128;2024-01-25T08:32:58;99511.03;;;0.88;100.00
7407;BME280;3745;56.964;24.128;2024-01-25T08:35:23;99481.63;;;0.77;100.00
7407;BME280;3745;56.964;24.128;2024-01-25T08:37:49;99581.13;;;1.27;100.00
7407;BME280;3745;56.964;24.128;2024-01-25T08:40:15;99546.44;;;1.06;100.00
7407;BME280;3745;56.964;24.128;2024-01-25T08:42:42;99583.59;;;1.27;100.00
7407;BME280;3745;56.964;24.128;2024-01-25T08:45:10;99582.53;;;1.19;100.00
7407;BME280;3745;56.964;24.128;2024-01-25T08:47:37;99606.03;;;1.27;100.00
7407;BME280;3745;56.964;24.128;2024-01-25T08:50:03;99606.09;;;1.29;100.00
7407;BME280;3745;56.964;24.128;2024-01-25T08:52:29;99592.97;;;1.07;100.00
7407;BME280;3745;56.964;24.128;2024-01-25T08:54:54;99629.38;;;1.29;100.00
7407;BME280;3745;56.964;24.128;2024-01-25T08:57:20;99561.97;;;0.98;100.00
7407;BME280;3745;56.964;24.128;2024-01-25T08:59:45;99621.94;;;1.31;100.00
7407;BME280;3745;56.964;24.128;2024-01-25T09:02:11;99641.19;;;1.36;100.00
7407;BME280;3745;56.964;24.128;2024-01-25T09:04:37;99643.09;;;1.43;100.00
7407;BME280;3745;56.964;24.128;2024-01-25T09:07:03;99627.66;;;1.28;100.00
7407;BME280;3745;56.964;24.128;2024-01-25T09:09:29;99621.75;;;1.25;100.00
7407;BME280;3745;56.964;24.128;2024-01-25T09:11:54;99666.50;;;1.48;100.00
7407;BME280;3745;56.964;24.128;2024-01-25T09:14:20;99680.66;;;1.49;100.00
7407;BME280;3745;56.964;24.128;2024-01-25T09:16:48;99683.16;;;1.49;100.00
7407;BME280;3745;56.964;24.128;2024-01-25T09:19:14;99644.00;;;1.20;100.00
7407;BME280;3745;56.964;24.128;2024-01-25T09:21:39;99694.81;;;1.50;100.00
7407;BME280;3745;56.964;24.128;2024-01-25T09:24:05;99699.81;;;1.50;100.00
7407;BME280;3745;56.964;24.128;2024-01-25T09:26:31;99695.91;;;1.33;100.00
7407;BME280;3745;56.964;24.128;2024-01-25T09:28:57;99724.63;;;1.47;100.00
7407;BME280;3745;56.964;24.128;2024-01-25T09:31:22;99733.09;;;1.52;100.00
7407;BME280;3745;56.964;24.128;2024-01-25T09:33:48;99692.34;;;1.25;100.00
7407;BME280;3745;56.964;24.128;2024-01-25T09:36:14;99751.34;;;1.51;100.00
7407;BME280;3745;56.964;24.128;2024-01-25T09:38:41;99722.63;;;1.37;100.00
7407;BME280;3745;56.964;24.128;2024-01-25T09:41:07;99745.66;;;1.55;100.00
7407;BME280;3745;56.964;24.128;2024-01-25T09:43:35;99760.63;;;1.55;100.00
7407;BME280;3745;56.964;24.128;2024-01-25T09:46:02;99763.00;;;1.52;100.00
7407;BME280;3745;56.964;24.128;2024-01-25T09:48:31;99705.19;;;1.12;100.00
7407;BME280;3745;56.964;24.128;2024-01-25T09:50:59;99766.19;;;1.48;100.00
7407;BME280;3745;56.964;24.128;2024-01-25T09:53:24;99777.66;;;1.43;100.00
7407;BME280;3745;56.964;24.128;2024-01-25T09:56:01;99804.31;;;1.46;100.00
7407;BME280;3745;56.964;24.128;2024-01-25T09:58:44;99797.59;;;1.43;100.00
7407;BME280;3745;56.964;24.128;2024-01-25T10:01:13;99800.19;;;1.46;100.00
7407;BME280;3745;56.964;24.128;2024-01-25T10:03:44;99812.66;;;1.46;100.00
7407;BME280;3745;56.964;24.128;2024-01-25T10:06:12;99820.91;;;1.45;100.00
7407;BME280;3745;56.964;24.128;2024-01-25T10:08:38;99823.50;;;1.48;100.00
7407;BME280;3745;56.964;24.128;2024-01-25T10:11:05;99804.00;;;1.35;100.00
7407;BME280;3745;56.964;24.128;2024-01-25T10:13:31;99809.97;;;1.40;100.00
7407;BME280;3745;56.964;24.128;2024-01-25T10:15:57;99845.38;;;1.55;100.00
7407;BME280;3745;56.964;24.128;2024-01-25T10:18:25;99815.44;;;1.30;100.00
7407;BME280;3745;56.964;24.128;2024-01-25T10:20:53;99855.06;;;1.48;100.00
7407;BME280;3745;56.964;24.128;2024-01-25T10:23:18;99857.63;;;1.49;100.00
7407;BME280;3745;56.964;24.128;2024-01-25T10:25:44;99868.28;;;1.45;100.00
7407;BME280;3745;56.964;24.128;2024-01-25T10:28:10;99857.31;;;1.40;100.00
7407;BME280;3745;56.964;24.128;2024-01-25T10:30:38;99836.97;;;1.28;100.00
7407;BME280;3745;56.964;24.128;2024-01-25T10:33:04;99878.31;;;1.47;100.00
7407;BME280;3745;56.964;24.128;2024-01-25T10:35:31;99894.22;;;1.50;100.00
7407;BME280;3745;56.964;24.128;2024-01-25T10:37:57;99756.69;;;0.66;100.00
7407;BME280;3745;56.964;24.128;2024-01-25T10:40:23;99878.97;;;1.41;100.00
7407;BME280;3745;56.964;24.128;2024-01-25T10:42:49;99864.50;;;1.33;100.00
7407;BME280;3745;56.964;24.128;2024-01-25T10:45:15;99895.06;;;1.51;100.00
7407;BME280;3745;56.964;24.128;2024-01-25T10:47:41;99894.13;;;1.47;100.00
7407;BME280;3745;56.964;24.128;2024-01-25T10:50:12;99930.25;;;1.60;100.00
7407;BME280;3745;56.964;24.128;2024-01-25T10:52:40;99932.53;;;1.54;100.00
7407;BME280;3745;56.964;24.128;2024-01-25T10:55:06;99913.97;;;1.44;100.00
7407;BME280;3745;56.964;24.128;2024-01-25T10:57:46;99939.09;;;1.50;100.00
7407;BME280;3745;56.964;24.128;2024-01-25T11:00:14;99947.25;;;1.46;100.00
7407;BME280;3745;56.964;24.128;2024-01-25T11:02:41;99945.31;;;1.39;100.00
7407;BME280;3745;56.964;24.128;2024-01-25T11:05:14;99961.19;;;1.41;100.00
7407;BME280;3745;56.964;24.128;2024-01-25T11:07:48;99972.00;;;1.42;100.00
7407;BME280;3745;56.964;24.128;2024-01-25T11:10:19;99962.56;;;1.33;100.00
7407;BME280;3745;56.964;24.128;2024-01-25T11:13:02;99974.66;;;1.24;100.00
7407;BME280;3745;56.964;24.128;2024-01-25T11:15:34;99981.69;;;1.34;100.00
7407;BME280;3745;56.964;24.128;2024-01-25T11:18:04;99991.56;;;1.31;100.00
7407;BME280;3745;56.964;24.128;2024-01-25T11:20:34;100000.03;;;1.36;100.00
7407;BME280;3745;56.964;24.128;2024-01-25T11:23:05;99979.44;;;1.18;100.00
7407;BME280;3745;56.964;24.128;2024-01-25T11:25:33;100017.38;;;1.33;100.00
7407;BME280;3745;56.964;24.128;2024-01-25T11:28:03;100025.66;;;1.32;100.00
7407;BME280;3745;56.964;24.128;2024-01-25T11:30:32;100021.47;;;1.31;100.00
7407;BME280;3745;56.964;24.128;2024-01-25T11:32:58;100027.22;;;1.30;100.00
7407;BME280;3745;56.964;24.128;2024-01-25T11:35:24;100023.59;;;1.22;100.00
7407;BME280;3745;56.964;24.128;2024-01-25T11:37:50;100022.56;;;1.17;100.00
7407;BME280;3745;56.964;24.128;2024-01-25T11:40:19;100031.31;;;1.28;100.00
7407;BME280;3745;56.964;24.128;2024-01-25T11:42:50;100050.63;;;1.34;100.00
7407;BME280;3745;56.964;24.128;2024-01-25T11:45:16;100051.47;;;1.34;100.00
7407;BME280;3745;56.964;24.128;2024-01-25T11:47:43;100055.56;;;1.32;100.00
7407;BME280;3745;56.964;24.128;2024-01-25T11:50:12;100041.28;;;1.28;100.00
7407;BME280;3745;56.964;24.128;2024-01-25T11:52:38;100069.94;;;1.39;100.00
7407;BME280;3745;56.964;24.128;2024-01-25T11:55:06;99924.28;;;0.44;100.00
7407;BME280;3745;56.964;24.128;2024-01-25T11:57:37;100035.50;;;1.07;100.00
7407;BME280;3745;56.964;24.128;2024-01-25T12:00:04;100083.22;;;1.38;100.00
7407;BME280;3745;56.964;24.128;2024-01-25T12:02:31;100104.94;;;1.42;100.00
7407;BME280;3745;56.964;24.128;2024-01-25T12:04:57;100094.97;;;1.42;100.00
7407;BME280;3745;56.964;24.128;2024-01-25T12:07:22;100081.03;;;1.25;100.00
7407;BME280;3745;56.964;24.128;2024-01-25T12:10:05;100125.75;;;1.43;100.00
7407;BME280;3745;56.964;24.128;2024-01-25T12:12:31;100125.00;;;1.45;100.00
7407;BME280;3745;56.964;24.128;2024-01-25T12:15:00;100136.56;;;1.43;100.00
7407;BME280;3745;56.964;24.128;2024-01-25T12:17:29;100127.03;;;1.33;100.00
7407;BME280;3745;56.964;24.128;2024-01-25T12:19:56;100154.06;;;1.45;100.00
7407;BME280;3745;56.964;24.128;2024-01-25T12:22:22;100124.06;;;1.21;100.00
7407;BME280;3745;56.964;24.128;2024-01-25T12:24:48;100165.13;;;1.51;100.00
7407;BME280;3745;56.964;24.128;2024-01-25T12:27:17;100003.84;;;0.42;100.00
7407;BME280;3745;56.964;24.128;2024-01-25T12:29:43;100170.00;;;1.48;100.00
7407;BME280;3745;56.964;24.128;2024-01-25T12:32:09;100192.53;;;1.51;100.00
7407;BME280;3745;56.964;24.128;2024-01-25T12:34:35;100183.03;;;1.41;100.00
7407;BME280;3745;56.964;24.128;2024-01-25T12:37:03;100206.72;;;1.52;100.00
7407;BME280;3745;56.964;24.128;2024-01-25T12:39:28;100172.03;;;1.17;100.00
7407;BME280;3745;56.964;24.128;2024-01-25T12:41:54;100193.47;;;1.53;100.00
7407;BME280;3745;56.964;24.128;2024-01-25T12:44:20;100191.41;;;1.43;100.00
7407;BME280;3745;56.964;24.128;2024-01-25T12:46:45;100189.56;;;1.39;100.00
7407;BME280;3745;56.964;24.128;2024-01-25T12:49:11;100193.44;;;1.33;100.00
7407;BME280;3745;56.964;24.128;2024-01-25T12:51:37;100254.75;;;1.48;100.00
7407;BME280;3745;56.964;24.128;2024-01-25T12:54:04;100212.69;;;1.35;100.00
7407;BME280;3745;56.964;24.128;2024-01-25T12:56:30;100209.88;;;1.48;100.00
7407;BME280;3745;56.964;24.128;2024-01-25T12:58:55;100228.00;;;1.44;100.00
7407;BME280;3745;56.964;24.128;2024-01-25T13:01:21;100273.13;;;1.50;100.00
7407;BME280;3745;56.964;24.128;2024-01-25T13:03:46;100261.97;;;1.42;100.00
7407;BME280;3745;56.964;24.128;2024-01-25T13:06:14;100279.91;;;1.54;100.00